sensor_id;sensor_type;location;lat;lon;timestamp;noise_LAeq;noise_LA_min;noise_LA_max;noise_LA01;noise_LA95
66888;Laerm;67239;51.680;5.976;2023-04-06T00:01:04;36.69;33.90;43.93;;
66888;Laerm;67239;51.680;5.976;2023-04-06T00:03:30;36.99;34.25;40.22;;
66888;Laerm;67239;51.680;5.976;2023-04-06T00:05:58;37.28;34.45;40.21;;
66888;Laerm;67239;51.680;5.976;2023-04-06T00:08:26;38.99;35.23;48.00;;
66888;Laerm;67239;51.680;5.976;2023-04-06T00:10:53;37.13;33.89;42.10;;
66888;Laerm;67239;51.680;5.976;2023-04-06T00:13:21;57.70;35.05;77.81;;
66888;Laerm;67239;51.680;5.976;2023-04-06T00:15:47;37.84;35.22;44.55;;
66888;Laerm;67239;51.680;5.976;2023-04-06T00:18:14;38.20;35.20;49.02;;
66888;Laerm;67239;51.680;5.976;2023-04-06T00:20:41;38.22;35.12;41.52;;
66888;Laerm;67239;51.680;5.976;2023-04-06T00:23:08;36.73;33.78;43.60;;
66888;Laerm;67239;51.680;5.976;2023-04-06T00:25:35;37.38;34.61;41.77;;
66888;Laerm;67239;51.680;5.976;2023-04-06T00:28:02;61.55;34.88;81.55;;
66888;Laerm;67239;51.680;5.976;2023-04-06T00:30:30;37.80;34.42;48.04;;
66888;Laerm;67239;51.680;5.976;2023-04-06T00:32:57;64.03;33.32;82.99;;
66888;Laerm;67239;51.680;5.976;2023-04-06T00:35:24;38.31;34.83;43.06;;
66888;Laerm;67239;51.680;5.976;2023-04-06T00:37:51;37.39;34.37;41.44;;
66888;Laerm;67239;51.680;5.976;2023-04-06T00:40:18;37.24;34.89;40.37;;
66888;Laerm;67239;51.680;5.976;2023-04-06T00:42:46;38.92;34.90;44.68;;
66888;Laerm;67239;51.680;5.976;2023-04-06T00:45:13;37.45;34.80;41.95;;
66888;Laerm;67239;51.680;5.976;2023-04-06T00:47:40;36.92;34.38;39.62;;
66888;Laerm;67239;51.680;5.976;2023-04-06T00:50:07;37.28;34.71;45.60;;
66888;Laerm;67239;51.680;5.976;2023-04-06T00:52:34;37.08;34.65;41.24;;
66888;Laerm;67239;51.680;5.976;2023-04-06T00:55:04;38.06;35.04;43.28;;
66888;Laerm;67239;51.680;5.976;2023-04-06T00:57:36;38.56;35.56;45.20;;
66888;Laerm;67239;51.680;5.976;2023-04-06T01:00:04;39.28;34.86;45.69;;
66888;Laerm;67239;51.680;5.976;2023-04-06T01:02:32;37.58;34.77;49.28;;
66888;Laerm;67239;51.680;5.976;2023-04-06T01:04:59;39.28;35.34;45.50;;
66888;Laerm;67239;51.680;5.976;2023-04-06T01:07:37;40.12;34.68;53.23;;
66888;Laerm;67239;51.680;5.976;2023-04-06T01:10:28;38.17;35.17;42.47;;
66888;Laerm;67239;51.680;5.976;2023-04-06T01:13:02;38.72;35.20;45.39;;
66888;Laerm;67239;51.680;5.976;2023-04-06T01:15:58;39.17;35.80;43.25;;
66888;Laerm;67239;51.680;5.976;2023-04-06T01:18:43;39.06;36.10;42.53;;
66888;Laerm;67239;51.680;5.976;2023-04-06T01:21:18;39.76;36.18;51.92;;
66888;Laerm;67239;51.680;5.976;2023-04-06T01:23:59;37.33;34.89;45.47;;
66888;Laerm;67239;51.680;5.976;2023-04-06T01:26:37;38.48;34.88;49.83;;
66888;Laerm;67239;51.680;5.976;2023-04-06T01:29:06;37.56;34.58;46.88;;
66888;Laerm;67239;51.680;5.976;2023-04-06T01:31:34;37.36;34.68;40.95;;
66888;Laerm;67239;51.680;5.976;2023-04-06T01:34:01;37.92;34.53;52.01;;
66888;Laerm;67239;51.680;5.976;2023-04-06T01:36:28;37.47;34.42;41.47;;
66888;Laerm;67239;51.680;5.976;2023-04-06T01:39:09;56.21;35.30;74.05;;
66888;Laerm;67239;51.680;5.976;2023-04-06T01:41:39;38.34;35.42;41.68;;
66888;Laerm;67239;51.680;5.976;2023-04-06T01:44:06;38.57;35.13;42.78;;
66888;Laerm;67239;51.680;5.976;2023-04-06T01:46:33;57.69;36.48;77.16;;
66888;Laerm;67239;51.680;5.976;2023-04-06T01:49:04;47.59;37.18;67.93;;
66888;Laerm;67239;51.680;5.976;2023-04-06T01:51:34;40.21;37.69;45.64;;
66888;Laerm;67239;51.680;5.976;2023-04-06T01:54:04;40.91;37.21;46.88;;
66888;Laerm;67239;51.680;5.976;2023-04-06T01:56:41;40.24;37.39;43.20;;
66888;Laerm;67239;51.680;5.976;2023-04-06T01:59:21;39.90;37.30;43.23;;
66888;Laerm;67239;51.680;5.976;2023-04-06T02:01:48;40.10;37.30;44.59;;
66888;Laerm;67239;51.680;5.976;2023-04-06T02:04:15;61.17;37.53;81.83;;
66888;Laerm;67239;51.680;5.976;2023-04-06T02:06:44;40.85;37.95;50.19;;
66888;Laerm;67239;51.680;5.976;2023-04-06T02:09:14;41.28;38.35;48.01;;
66888;Laerm;67239;51.680;5.976;2023-04-06T02:11:41;41.21;37.46;45.30;;
66888;Laerm;67239;51.680;5.976;2023-04-06T02:14:08;41.97;37.75;48.89;;
66888;Laerm;67239;51.680;5.976;2023-04-06T02:16:41;40.82;37.93;46.16;;
66888;Laerm;67239;51.680;5.976;2023-04-06T02:19:08;40.48;37.56;43.84;;
66888;Laerm;67239;51.680;5.976;2023-04-06T02:21:35;40.34;37.72;44.84;;
66888;Laerm;67239;51.680;5.976;2023-04-06T02:24:02;42.54;37.41;56.05;;
66888;Laerm;67239;51.680;5.976;2023-04-06T02:26:29;41.80;37.21;46.38;;
66888;Laerm;67239;51.680;5.976;2023-04-06T02:28:56;41.49;37.61;47.56;;
66888;Laerm;67239;51.680;5.976;2023-04-06T02:31:23;41.64;38.02;48.06;;
66888;Laerm;67239;51.680;5.976;2023-04-06T02:33:51;41.36;36.58;49.14;;
66888;Laerm;67239;51.680;5.976;2023-04-06T02:36:18;41.65;37.28;48.56;;
66888;Laerm;67239;51.680;5.976;2023-04-06T02:38:45;40.21;36.85;44.22;;
66888;Laerm;67239;51.680;5.976;2023-04-06T02:41:12;40.31;36.27;47.85;;
66888;Laerm;67239;51.680;5.976;2023-04-06T02:43:39;40.54;36.94;48.98;;
66888;Laerm;67239;51.680;5.976;2023-04-06T02:46:17;61.41;38.21;81.11;;
66888;Laerm;67239;51.680;5.976;2023-04-06T02:48:44;43.31;38.86;57.46;;
66888;Laerm;67239;51.680;5.976;2023-04-06T02:51:11;44.18;38.99;57.88;;
66888;Laerm;67239;51.680;5.976;2023-04-06T02:53:41;66.03;40.96;84.33;;
66888;Laerm;67239;51.680;5.976;2023-04-06T02:56:08;60.91;39.79;78.10;;
66888;Laerm;67239;51.680;5.976;2023-04-06T02:58:44;48.75;39.79;67.86;;
66888;Laerm;67239;51.680;5.976;2023-04-06T03:01:12;59.12;40.74;76.55;;
66888;Laerm;67239;51.680;5.976;2023-04-06T03:03:40;62.48;39.73;81.54;;
66888;Laerm;67239;51.680;5.976;2023-04-06T03:06:14;47.17;39.28;60.21;;
66888;Laerm;67239;51.680;5.976;2023-04-06T03:08:42;58.48;39.40;76.55;;
66888;Laerm;67239;51.680;5.976;2023-04-06T03:11:10;57.57;40.49;73.21;;
66888;Laerm;67239;51.680;5.976;2023-04-06T03:13:40;47.43;39.58;67.58;;
66888;Laerm;67239;51.680;5.976;2023-04-06T03:16:07;60.48;39.98;73.91;;
66888;Laerm;67239;51.680;5.976;2023-04-06T03:18:34;65.25;41.96;80.23;;
66888;Laerm;67239;51.680;5.976;2023-04-06T03:21:01;50.52;38.99;68.50;;
66888;Laerm;67239;51.680;5.976;2023-04-06T03:23:41;65.44;38.59;80.43;;
66888;Laerm;67239;51.680;5.976;2023-04-06T03:26:10;65.17;41.38;82.17;;
66888;Laerm;67239;51.680;5.976;2023-04-06T03:28:37;67.48;39.68;85.93;;
66888;Laerm;67239;51.680;5.976;2023-04-06T03:31:05;64.26;39.61;81.88;;
66888;Laerm;67239;51.680;5.976;2023-04-06T03:33:55;60.61;38.59;80.08;;
66888;Laerm;67239;51.680;5.976;2023-04-06T03:36:27;64.98;41.18;79.96;;
66888;Laerm;67239;51.680;5.976;2023-04-06T03:38:56;62.14;41.30;77.18;;
66888;Laerm;67239;51.680;5.976;2023-04-06T03:41:23;67.76;43.25;83.33;;
66888;Laerm;67239;51.680;5.976;2023-04-06T03:44:02;64.39;42.42;80.92;;
66888;Laerm;67239;51.680;5.976;2023-04-06T03:46:29;57.65;39.81;75.53;;
66888;Laerm;67239;51.680;5.976;2023-04-06T03:48:58;66.83;41.79;81.19;;
66888;Laerm;67239;51.680;5.976;2023-04-06T03:51:26;67.72;44.02;80.75;;
66888;Laerm;67239;51.680;5.976;2023-04-06T03:53:53;65.75;41.38;79.60;;
66888;Laerm;67239;51.680;5.976;2023-04-06T03:56:20;66.14;41.49;81.25;;
66888;Laerm;67239;51.680;5.976;2023-04-06T03:58:47;64.32;40.16;81.31;;
66888;Laerm;67239;51.680;5.976;2023-04-06T04:01:20;64.30;41.47;82.55;;
66888;Laerm;67239;51.680;5.976;2023-04-06T04:03:47;71.45;42.41;83.07;;
66888;Laerm;67239;51.680;5.976;2023-04-06T04:06:17;66.52;42.88;82.93;;
66888;Laerm;67239;51.680;5.976;2023-04-06T04:08:45;64.36;42.59;77.97;;
66888;Laerm;67239;51.680;5.976;2023-04-06T04:11:12;69.43;41.92;84.67;;
66888;Laerm;67239;51.680;5.976;2023-04-06T04:13:39;64.11;42.91;81.66;;
66888;Laerm;67239;51.680;5.976;2023-04-06T04:16:07;65.05;41.43;80.33;;
66888;Laerm;67239;51.680;5.976;2023-04-06T04:18:35;65.91;42.06;82.36;;
66888;Laerm;67239;51.680;5.976;2023-04-06T04:21:03;61.71;41.29;78.31;;
66888;Laerm;67239;51.680;5.976;2023-04-06T04:23:30;70.87;45.71;84.73;;
66888;Laerm;67239;51.680;5.976;2023-04-06T04:25:57;65.32;42.69;82.01;;
66888;Laerm;67239;51.680;5.976;2023-04-06T04:28:24;69.63;46.01;85.18;;
66888;Laerm;67239;51.680;5.976;2023-04-06T04:30:53;61.44;42.39;79.76;;
66888;Laerm;67239;51.680;5.976;2023-04-06T04:33:22;67.46;43.42;80.96;;
66888;Laerm;67239;51.680;5.976;2023-04-06T04:35:53;69.53;44.28;89.28;;
66888;Laerm;67239;51.680;5.976;2023-04-06T04:38:23;69.26;43.72;84.72;;
66888;Laerm;67239;51.680;5.976;2023-04-06T04:40:53;66.14;45.02;80.80;;
66888;Laerm;67239;51.680;5.976;2023-04-06T04:43:21;65.17;43.37;83.48;;
66888;Laerm;67239;51.680;5.976;2023-04-06T04:45:48;69.62;46.71;81.81;;
66888;Laerm;67239;51.680;5.976;2023-04-06T04:48:34;66.59;45.21;79.75;;
66888;Laerm;67239;51.680;5.976;2023-04-06T04:51:04;64.55;43.65;79.89;;
66888;Laerm;67239;51.680;5.976;2023-04-06T04:53:55;68.22;43.62;81.68;;
66888;Laerm;67239;51.680;5.976;2023-04-06T04:56:26;67.49;44.04;80.95;;
66888;Laerm;67239;51.680;5.976;2023-04-06T04:59:00;68.79;47.30;81.38;;
66888;Laerm;67239;51.680;5.976;2023-04-06T05:01:30;69.69;45.73;83.49;;
66888;Laerm;67239;51.680;5.976;2023-04-06T05:04:09;69.36;44.93;81.88;;
66888;Laerm;67239;51.680;5.976;2023-04-06T05:06:37;69.22;45.94;82.68;;
66888;Laerm;67239;51.680;5.976;2023-04-06T05:09:04;64.22;43.60;77.90;;
66888;Laerm;67239;51.680;5.976;2023-04-06T05:11:32;67.61;43.88;80.48;;
66888;Laerm;67239;51.680;5.976;2023-04-06T05:14:00;62.30;42.86;78.21;;
66888;Laerm;67239;51.680;5.976;2023-04-06T05:16:28;67.72;45.62;80.61;;
66888;Laerm;67239;51.680;5.976;2023-04-06T05:18:55;70.73;46.76;87.05;;
66888;Laerm;67239;51.680;5.976;2023-04-06T05:21:26;70.14;46.21;85.36;;
66888;Laerm;67239;51.680;5.976;2023-04-06T05:23:59;71.16;47.32;83.10;;
66888;Laerm;67239;51.680;5.976;2023-04-06T05:26:27;70.20;49.39;83.37;;
66888;Laerm;67239;51.680;5.976;2023-04-06T05:28:59;68.45;46.41;81.51;;
66888;Laerm;67239;51.680;5.976;2023-04-06T05:31:30;69.27;44.02;82.17;;
66888;Laerm;67239;51.680;5.976;2023-04-06T05:33:58;66.89;46.75;81.39;;
66888;Laerm;67239;51.680;5.976;2023-04-06T05:36:32;69.80;44.97;80.92;;
66888;Laerm;67239;51.680;5.976;2023-04-06T05:39:07;70.12;50.23;82.20;;
66888;Laerm;67239;51.680;5.976;2023-04-06T05:41:43;71.06;48.78;83.80;;
66888;Laerm;67239;51.680;5.976;2023-04-06T05:44:11;70.92;47.66;82.83;;
66888;Laerm;67239;51.680;5.976;2023-04-06T05:46:42;71.96;47.06;82.65;;
66888;Laerm;67239;51.680;5.976;2023-04-06T05:49:13;70.33;50.35;81.77;;
66888;Laerm;67239;51.680;5.976;2023-04-06T05:51:43;68.97;45.70;79.61;;
66888;Laerm;67239;51.680;5.976;2023-04-06T05:54:10;69.14;47.12;82.08;;
66888;Laerm;67239;51.680;5.976;2023-04-06T05:56:37;69.05;47.42;81.27;;
66888;Laerm;67239;51.680;5.976;2023-04-06T05:59:08;70.68;45.38;84.75;;
66888;Laerm;67239;51.680;5.976;2023-04-06T06:01:35;72.14;49.88;83.19;;
66888;Laerm;67239;51.680;5.976;2023-04-06T06:04:04;71.51;51.00;82.63;;
66888;Laerm;67239;51.680;5.976;2023-04-06T06:06:35;71.86;50.50;86.69;;
66888;Laerm;67239;51.680;5.976;2023-04-06T06:09:18;68.87;45.25;81.67;;
66888;Laerm;67239;51.680;5.976;2023-04-06T06:11:55;69.74;43.65;80.09;;
66888;Laerm;67239;51.680;5.976;2023-04-06T06:14:25;67.60;46.58;80.90;;
66888;Laerm;67239;51.680;5.976;2023-04-06T06:16:55;70.51;48.37;81.58;;
66888;Laerm;67239;51.680;5.976;2023-04-06T06:19:22;69.34;45.13;80.26;;
66888;Laerm;67239;51.680;5.976;2023-04-06T06:21:53;68.57;46.42;80.60;;
66888;Laerm;67239;51.680;5.976;2023-04-06T06:24:20;68.70;44.88;81.06;;
66888;Laerm;67239;51.680;5.976;2023-04-06T06:26:48;72.35;51.23;82.58;;
66888;Laerm;67239;51.680;5.976;2023-04-06T06:29:19;68.50;46.78;84.71;;
66888;Laerm;67239;51.680;5.976;2023-04-06T06:31:48;69.18;47.27;80.06;;
66888;Laerm;67239;51.680;5.976;2023-04-06T06:34:16;70.53;51.73;86.24;;
66888;Laerm;67239;51.680;5.976;2023-04-06T06:36:44;71.05;52.35;81.53;;
66888;Laerm;67239;51.680;5.976;2023-04-06T06:39:15;70.40;45.37;84.11;;
66888;Laerm;67239;51.680;5.976;2023-04-06T06:41:43;71.15;45.84;83.42;;
66888;Laerm;67239;51.680;5.976;2023-04-06T06:44:11;67.98;45.90;80.35;;
66888;Laerm;67239;51.680;5.976;2023-04-06T06:46:39;67.08;43.81;78.34;;
66888;Laerm;67239;51.680;5.976;2023-04-06T06:49:07;68.80;47.58;79.93;;
66888;Laerm;67239;51.680;5.976;2023-04-06T06:51:35;70.55;47.41;82.13;;
66888;Laerm;67239;51.680;5.976;2023-04-06T06:54:03;68.06;46.58;81.41;;
66888;Laerm;67239;51.680;5.976;2023-04-06T06:56:30;71.44;45.13;82.39;;
66888;Laerm;67239;51.680;5.976;2023-04-06T06:58:58;71.74;53.32;83.74;;
66888;Laerm;67239;51.680;5.976;2023-04-06T07:01:26;69.49;45.17;81.59;;
66888;Laerm;67239;51.680;5.976;2023-04-06T07:03:55;69.87;45.99;82.86;;
66888;Laerm;67239;51.680;5.976;2023-04-06T07:06:23;72.65;48.55;81.49;;
66888;Laerm;67239;51.680;5.976;2023-04-06T07:08:50;68.04;45.95;82.13;;
66888;Laerm;67239;51.680;5.976;2023-04-06T07:11:18;66.96;44.39;78.84;;
66888;Laerm;67239;51.680;5.976;2023-04-06T07:13:45;68.60;44.36;80.25;;
66888;Laerm;67239;51.680;5.976;2023-04-06T07:16:13;65.64;42.48;79.09;;
66888;Laerm;67239;51.680;5.976;2023-04-06T07:18:41;70.03;47.87;82.04;;
66888;Laerm;67239;51.680;5.976;2023-04-06T07:21:08;69.76;43.64;81.20;;
66888;Laerm;67239;51.680;5.976;2023-04-06T07:23:36;73.11;44.20;99.52;;
66888;Laerm;67239;51.680;5.976;2023-04-06T07:26:04;68.15;49.90;82.08;;
66888;Laerm;67239;51.680;5.976;2023-04-06T07:28:31;67.82;44.52;81.48;;
66888;Laerm;67239;51.680;5.976;2023-04-06T07:31:01;66.51;43.65;78.18;;
66888;Laerm;67239;51.680;5.976;2023-04-06T07:33:28;69.73;46.01;81.80;;
66888;Laerm;67239;51.680;5.976;2023-04-06T07:35:57;68.05;44.92;83.89;;
66888;Laerm;67239;51.680;5.976;2023-04-06T07:38:26;70.18;43.45;84.45;;
66888;Laerm;67239;51.680;5.976;2023-04-06T07:40:54;69.57;45.49;81.94;;
66888;Laerm;67239;51.680;5.976;2023-04-06T07:43:22;62.93;41.09;78.27;;
66888;Laerm;67239;51.680;5.976;2023-04-06T07:45:50;70.37;48.28;84.18;;
66888;Laerm;67239;51.680;5.976;2023-04-06T07:48:18;68.65;43.11;81.83;;
66888;Laerm;67239;51.680;5.976;2023-04-06T07:50:45;70.82;43.32;81.00;;
66888;Laerm;67239;51.680;5.976;2023-04-06T07:53:14;73.99;47.12;91.40;;
66888;Laerm;67239;51.680;5.976;2023-04-06T07:55:44;67.46;44.92;80.92;;
66888;Laerm;67239;51.680;5.976;2023-04-06T07:58:11;69.69;46.25;82.59;;
66888;Laerm;67239;51.680;5.976;2023-04-06T08:00:38;67.51;44.38;82.64;;
66888;Laerm;67239;51.680;5.976;2023-04-06T08:03:05;69.05;45.72;79.91;;
66888;Laerm;67239;51.680;5.976;2023-04-06T08:05:34;72.67;44.12;94.83;;
66888;Laerm;67239;51.680;5.976;2023-04-06T08:08:01;70.40;50.80;80.37;;
66888;Laerm;67239;51.680;5.976;2023-04-06T08:10:28;66.95;41.09;80.72;;
66888;Laerm;67239;51.680;5.976;2023-04-06T08:12:55;68.25;41.13;84.18;;
66888;Laerm;67239;51.680;5.976;2023-04-06T08:15:22;70.07;44.29;84.52;;
66888;Laerm;67239;51.680;5.976;2023-04-06T08:17:49;70.03;44.73;85.99;;
66888;Laerm;67239;51.680;5.976;2023-04-06T08:20:16;67.72;41.68;83.55;;
66888;Laerm;67239;51.680;5.976;2023-04-06T08:22:43;70.88;42.73;82.59;;
66888;Laerm;67239;51.680;5.976;2023-04-06T08:25:10;67.16;47.20;80.16;;
66888;Laerm;67239;51.680;5.976;2023-04-06T08:27:37;70.84;44.90;84.88;;
66888;Laerm;67239;51.680;5.976;2023-04-06T08:30:05;69.87;50.99;81.70;;
66888;Laerm;67239;51.680;5.976;2023-04-06T08:32:32;70.41;43.97;80.73;;
66888;Laerm;67239;51.680;5.976;2023-04-06T08:34:59;66.88;44.74;79.21;;
66888;Laerm;67239;51.680;5.976;2023-04-06T08:37:27;70.63;46.28;83.38;;
66888;Laerm;67239;51.680;5.976;2023-04-06T08:39:54;67.94;41.01;86.31;;
66888;Laerm;67239;51.680;5.976;2023-04-06T08:42:25;69.63;46.38;81.72;;
66888;Laerm;67239;51.680;5.976;2023-04-06T08:44:53;65.11;39.33;79.82;;
66888;Laerm;67239;51.680;5.976;2023-04-06T08:47:22;70.55;40.56;84.81;;
66888;Laerm;67239;51.680;5.976;2023-04-06T08:49:52;68.57;39.96;85.14;;
66888;Laerm;67239;51.680;5.976;2023-04-06T08:52:20;68.28;43.02;81.03;;
66888;Laerm;67239;51.680;5.976;2023-04-06T08:54:47;70.91;51.09;82.26;;
66888;Laerm;67239;51.680;5.976;2023-04-06T08:57:18;68.04;43.61;80.37;;
66888;Laerm;67239;51.680;5.976;2023-04-06T08:59:46;65.56;41.41;79.29;;
66888;Laerm;67239;51.680;5.976;2023-04-06T09:02:18;68.73;42.59;81.42;;
66888;Laerm;67239;51.680;5.976;2023-04-06T09:04:49;68.01;42.92;80.83;;
66888;Laerm;67239;51.680;5.976;2023-04-06T09:07:23;70.65;43.26;85.61;;
66888;Laerm;67239;51.680;5.976;2023-04-06T09:09:50;70.20;45.33;83.08;;
66888;Laerm;67239;51.680;5.976;2023-04-06T09:12:31;69.68;49.79;81.80;;
66888;Laerm;67239;51.680;5.976;2023-04-06T09:15:02;73.88;40.29;90.84;;
66888;Laerm;67239;51.680;5.976;2023-04-06T09:17:32;68.90;48.75;79.74;;
66888;Laerm;67239;51.680;5.976;2023-04-06T09:20:01;69.50;44.79;82.70;;
66888;Laerm;67239;51.680;5.976;2023-04-06T09:22:40;68.08;43.28;79.16;;
66888;Laerm;67239;51.680;5.976;2023-04-06T09:25:10;67.87;48.52;79.98;;
66888;Laerm;67239;51.680;5.976;2023-04-06T09:27:47;68.36;42.82;82.93;;
66888;Laerm;67239;51.680;5.976;2023-04-06T09:30:14;68.01;43.11;79.99;;
66888;Laerm;67239;51.680;5.976;2023-04-06T09:32:53;68.79;45.66;81.12;;
66888;Laerm;67239;51.680;5.976;2023-04-06T09:35:23;68.46;43.02;83.84;;
66888;Laerm;67239;51.680;5.976;2023-04-06T09:37:52;66.47;43.13;82.64;;
66888;Laerm;67239;51.680;5.976;2023-04-06T09:40:22;69.84;42.94;90.56;;
66888;Laerm;67239;51.680;5.976;2023-04-06T09:42:52;71.54;47.19;83.11;;
66888;Laerm;67239;51.680;5.976;2023-04-06T09:45:29;66.95;43.18;82.54;;
66888;Laerm;67239;51.680;5.976;2023-04-06T09:47:57;69.19;44.31;80.46;;
66888;Laerm;67239;51.680;5.976;2023-04-06T09:50:29;66.70;43.42;80.93;;
66888;Laerm;67239;51.680;5.976;2023-04-06T09:53:01;67.63;44.37;81.09;;
66888;Laerm;67239;51.680;5.976;2023-04-06T09:55:42;66.94;45.36;79.71;;
66888;Laerm;67239;51.680;5.976;2023-04-06T09:58:16;70.71;43.82;84.57;;
66888;Laerm;67239;51.680;5.976;2023-04-06T10:01:03;70.63;45.04;82.48;;
66888;Laerm;67239;51.680;5.976;2023-04-06T10:06:33;69.27;45.11;80.97;;
66888;Laerm;67239;51.680;5.976;2023-04-06T10:09:05;67.55;42.15;87.11;;
66888;Laerm;67239;51.680;5.976;2023-04-06T10:11:34;72.44;50.61;83.72;;
66888;Laerm;67239;51.680;5.976;2023-04-06T10:14:02;71.79;45.65;90.62;;
66888;Laerm;67239;51.680;5.976;2023-04-06T10:16:29;69.16;44.19;83.17;;
66888;Laerm;67239;51.680;5.976;2023-04-06T10:19:41;69.38;44.68;81.00;;
66888;Laerm;67239;51.680;5.976;2023-04-06T10:22:03;69.19;44.81;80.40;;
66888;Laerm;67239;51.680;5.976;2023-04-06T10:24:32;71.90;46.71;85.46;;
66888;Laerm;67239;51.680;5.976;2023-04-06T10:27:02;68.89;44.24;83.35;;
66888;Laerm;67239;51.680;5.976;2023-04-06T10:29:47;69.70;45.48;83.20;;
66888;Laerm;67239;51.680;5.976;2023-04-06T10:32:18;69.07;43.54;82.92;;
66888;Laerm;67239;51.680;5.976;2023-04-06T10:34:45;68.58;46.06;80.07;;
66888;Laerm;67239;51.680;5.976;2023-04-06T10:37:13;67.41;46.27;79.83;;
66888;Laerm;67239;51.680;5.976;2023-04-06T10:39:52;68.60;44.86;80.78;;
66888;Laerm;67239;51.680;5.976;2023-04-06T10:42:25;69.44;42.09;81.27;;
66888;Laerm;67239;51.680;5.976;2023-04-06T10:44:52;70.16;49.34;82.96;;
66888;Laerm;67239;51.680;5.976;2023-04-06T10:47:19;68.51;45.33;80.69;;
66888;Laerm;67239;51.680;5.976;2023-04-06T10:49:46;72.51;54.54;83.26;;
66888;Laerm;67239;51.680;5.976;2023-04-06T10:52:13;68.62;47.42;81.35;;
66888;Laerm;67239;51.680;5.976;2023-04-06T10:54:42;69.45;49.39;79.70;;
66888;Laerm;67239;51.680;5.976;2023-04-06T10:57:12;67.19;42.56;79.75;;
66888;Laerm;67239;51.680;5.976;2023-04-06T10:59:43;69.50;46.33;81.41;;
66888;Laerm;67239;51.680;5.976;2023-04-06T11:02:19;68.86;49.41;79.59;;
66888;Laerm;67239;51.680;5.976;2023-04-06T11:04:58;68.69;46.19;80.02;;
66888;Laerm;67239;51.680;5.976;2023-04-06T11:07:27;68.02;45.39;82.35;;
66888;Laerm;67239;51.680;5.976;2023-04-06T11:09:56;68.40;42.94;83.20;;
66888;Laerm;67239;51.680;5.976;2023-04-06T11:12:42;66.32;44.82;78.78;;
66888;Laerm;67239;51.680;5.976;2023-04-06T11:15:10;70.84;45.17;87.59;;
66888;Laerm;67239;51.680;5.976;2023-04-06T11:17:37;67.26;43.03;80.81;;
66888;Laerm;67239;51.680;5.976;2023-04-06T11:20:10;67.37;41.73;78.74;;
66888;Laerm;67239;51.680;5.976;2023-04-06T11:22:51;67.97;52.94;77.74;;
66888;Laerm;67239;51.680;5.976;2023-04-06T11:25:19;68.69;46.33;81.83;;
66888;Laerm;67239;51.680;5.976;2023-04-06T11:27:47;70.34;47.00;80.64;;
66888;Laerm;67239;51.680;5.976;2023-04-06T11:30:15;72.69;51.54;84.01;;
66888;Laerm;67239;51.680;5.976;2023-04-06T11:32:44;69.44;45.20;80.35;;
66888;Laerm;67239;51.680;5.976;2023-04-06T11:35:22;69.08;46.44;82.26;;
66888;Laerm;67239;51.680;5.976;2023-04-06T11:37:51;71.34;50.47;83.26;;
66888;Laerm;67239;51.680;5.976;2023-04-06T11:40:22;68.66;44.88;80.25;;
66888;Laerm;67239;51.680;5.976;2023-04-06T11:42:54;65.96;49.19;77.11;;
66888;Laerm;67239;51.680;5.976;2023-04-06T11:45:22;70.12;50.21;81.91;;
66888;Laerm;67239;51.680;5.976;2023-04-06T11:47:58;69.12;46.98;84.32;;
66888;Laerm;67239;51.680;5.976;2023-04-06T11:50:32;69.20;47.45;80.84;;
66888;Laerm;67239;51.680;5.976;2023-04-06T11:53:02;70.66;50.36;82.26;;
66888;Laerm;67239;51.680;5.976;2023-04-06T11:55:38;69.87;46.30;86.92;;
66888;Laerm;67239;51.680;5.976;2023-04-06T11:58:06;69.03;45.01;81.26;;
66888;Laerm;67239;51.680;5.976;2023-04-06T12:00:33;68.52;45.45;82.97;;
66888;Laerm;67239;51.680;5.976;2023-04-06T12:03:01;71.57;45.70;82.65;;
66888;Laerm;67239;51.680;5.976;2023-04-06T12:05:28;70.82;48.10;82.89;;
66888;Laerm;67239;51.680;5.976;2023-04-06T12:07:55;72.08;54.66;83.30;;
66888;Laerm;67239;51.680;5.976;2023-04-06T12:10:26;70.03;53.74;81.99;;
66888;Laerm;67239;51.680;5.976;2023-04-06T12:12:53;71.16;51.77;80.65;;
66888;Laerm;67239;51.680;5.976;2023-04-06T12:15:20;70.49;50.41;84.21;;
66888;Laerm;67239;51.680;5.976;2023-04-06T12:17:48;70.05;47.42;80.78;;
66888;Laerm;67239;51.680;5.976;2023-04-06T12:20:16;68.93;49.56;83.62;;
66888;Laerm;67239;51.680;5.976;2023-04-06T12:22:52;70.69;51.93;81.90;;
66888;Laerm;67239;51.680;5.976;2023-04-06T12:25:19;68.68;48.35;84.76;;
66888;Laerm;67239;51.680;5.976;2023-04-06T12:27:47;70.90;47.19;83.18;;
66888;Laerm;67239;51.680;5.976;2023-04-06T12:30:15;69.98;49.69;81.51;;
66888;Laerm;67239;51.680;5.976;2023-04-06T12:32:42;71.14;49.86;83.29;;
66888;Laerm;67239;51.680;5.976;2023-04-06T12:35:09;68.06;45.83;81.17;;
66888;Laerm;67239;51.680;5.976;2023-04-06T12:37:38;70.30;49.66;81.87;;
66888;Laerm;67239;51.680;5.976;2023-04-06T12:40:06;69.51;47.87;83.69;;
66888;Laerm;67239;51.680;5.976;2023-04-06T12:42:33;70.81;51.48;83.42;;
66888;Laerm;67239;51.680;5.976;2023-04-06T12:45:00;71.01;46.22;82.52;;
66888;Laerm;67239;51.680;5.976;2023-04-06T12:47:27;72.15;47.27;84.66;;
66888;Laerm;67239;51.680;5.976;2023-04-06T12:49:55;67.36;47.46;82.57;;
66888;Laerm;67239;51.680;5.976;2023-04-06T12:52:23;69.40;44.51;80.21;;
66888;Laerm;67239;51.680;5.976;2023-04-06T12:54:50;73.17;44.19;82.38;;
66888;Laerm;67239;51.680;5.976;2023-04-06T12:57:18;72.61;47.26;85.28;;
66888;Laerm;67239;51.680;5.976;2023-04-06T12:59:45;72.35;48.04;82.34;;
66888;Laerm;67239;51.680;5.976;2023-04-06T13:02:13;68.51;48.55;80.08;;
66888;Laerm;67239;51.680;5.976;2023-04-06T13:04:40;73.31;47.69;83.36;;
66888;Laerm;67239;51.680;5.976;2023-04-06T13:07:08;68.86;47.31;82.33;;
66888;Laerm;67239;51.680;5.976;2023-04-06T13:09:35;72.77;47.68;84.18;;
66888;Laerm;67239;51.680;5.976;2023-04-06T13:12:03;72.45;47.88;83.33;;
66888;Laerm;67239;51.680;5.976;2023-04-06T13:14:30;70.91;47.93;84.72;;
66888;Laerm;67239;51.680;5.976;2023-04-06T13:16:58;70.84;45.07;82.46;;
66888;Laerm;67239;51.680;5.976;2023-04-06T13:19:24;71.70;49.57;82.47;;
66888;Laerm;67239;51.680;5.976;2023-04-06T13:21:52;72.21;47.59;84.28;;
66888;Laerm;67239;51.680;5.976;2023-04-06T13:24:19;66.89;44.03;78.22;;
66888;Laerm;67239;51.680;5.976;2023-04-06T13:26:47;72.32;52.76;84.18;;
66888;Laerm;67239;51.680;5.976;2023-04-06T13:29:14;72.54;53.62;81.72;;
66888;Laerm;67239;51.680;5.976;2023-04-06T13:31:41;70.39;48.66;82.01;;
66888;Laerm;67239;51.680;5.976;2023-04-06T13:34:08;73.12;49.81;85.65;;
66888;Laerm;67239;51.680;5.976;2023-04-06T13:36:35;70.86;52.23;83.16;;
66888;Laerm;67239;51.680;5.976;2023-04-06T13:39:02;69.10;45.86;82.25;;
66888;Laerm;67239;51.680;5.976;2023-04-06T13:41:30;70.56;51.53;80.79;;
66888;Laerm;67239;51.680;5.976;2023-04-06T13:43:57;71.32;45.89;83.83;;
66888;Laerm;67239;51.680;5.976;2023-04-06T13:46:25;68.65;49.03;81.83;;
66888;Laerm;67239;51.680;5.976;2023-04-06T13:48:52;73.86;54.28;85.61;;
66888;Laerm;67239;51.680;5.976;2023-04-06T13:51:20;70.20;46.94;82.05;;
66888;Laerm;67239;51.680;5.976;2023-04-06T13:53:47;72.20;49.02;87.55;;
66888;Laerm;67239;51.680;5.976;2023-04-06T13:56:16;71.12;47.34;84.49;;
66888;Laerm;67239;51.680;5.976;2023-04-06T13:58:43;70.61;49.54;82.08;;
66888;Laerm;67239;51.680;5.976;2023-04-06T14:01:11;71.38;51.46;82.71;;